首页
METAR-TAF:

METAR-TAF

机场 :

赛义德·易卜拉欣王子国际机场

莫洛尼, 葛摩

纬度: 11-32S, 经度: 043-16E, 海拔: 29米

当前天气观测

该预报发布于1小时和2分钟前的10:00 UTC
风速12节,风向东南
温度 32°C
湿度 56%
气压 1013 hPa
能见度10公里或以上
少量云层高于2000英尺
多云层高于8000英尺

METAR: FMCH 151000Z 13012KT 9999 FEW020 BKN080 32/22 Q1013 WS RWY20 NOSIG

时间: 14:02 (11:02 UTC)

预报

该预报发布于6小时和2分钟前的05:00 UTC
预报有效从15日的 06点(UTC)到 16日的 12点(UTC)
风速13节,风向东南
能见度10公里或以上
少量云层高于2000英尺
散云层高于3000英尺
几率 30% :
短暂存在
从 15日的 10点(UTC)到 15日的 14点(UTC)
能見度: 4000
阵雨
成为
从 15日的 16点(UTC)到 15日的 18点(UTC)
风速3节,风向多变
成为
从 16日的 05点(UTC)到 16日的 07点(UTC)
风速10节,风向

TAF: FMCH 150500Z 1506/1612 14013KT 9999 FEW020 SCT030 PROB30 TEMPO 1510/1514 4000 SHRA BECMG 1516/1518 VRB03KT BECMG 1605/1607 19010KT

超过4000个机场的气象观测和天气预报(METAR&TAF报告)。

可查询的气象台以黄色和红色小点在地图上表示。

将鼠标移到小点上方,可查看气象台名称。

然后点击查看天气观测和预报。

如需切换地图:点击带黑十字的绿色按钮放大地图;点击带横线的绿色按钮缩小地图;或者点击绿色箭头查看邻近地区的地图。


METAR-TAF: